createdAt,value
2022-10-23T00:02:54.635Z,99749.78
2022-10-23T00:05:56.360Z,99753.22
2022-10-23T00:08:57.923Z,99748.97
2022-10-23T00:11:59.434Z,99742.59
2022-10-23T00:15:00.864Z,99739.31
2022-10-23T00:18:03.631Z,99737.69
2022-10-23T00:21:06.832Z,99734.13
2022-10-23T00:27:15.589Z,99725.31
2022-10-23T00:30:17.077Z,99725.47
2022-10-23T00:33:18.793Z,99729.00
2022-10-23T00:36:21.561Z,99731.66
2022-10-23T00:39:22.989Z,99731.34
2022-10-23T00:42:24.609Z,99738.19
2022-10-23T00:45:31.599Z,99735.56
2022-10-23T00:48:33.081Z,99726.38
2022-10-23T00:51:47.340Z,99726.03
2022-10-23T00:54:49.194Z,99723.47
2022-10-23T00:57:52.100Z,99725.66
2022-10-23T01:00:56.357Z,99723.31
2022-10-23T01:03:58.083Z,99717.53
2022-10-23T01:07:13.815Z,99718.56
2022-10-23T01:10:25.846Z,99716.56
2022-10-23T01:13:35.735Z,99713.13
2022-10-23T01:16:49.959Z,99714.56
2022-10-23T01:20:14.164Z,99716.38
2022-10-23T01:23:40.680Z,99716.06
2022-10-23T01:27:00.616Z,99717.94
2022-10-23T01:30:08.719Z,99709.09
2022-10-23T01:33:21.951Z,99695.44
2022-10-23T01:36:29.471Z,99700.81
2022-10-23T01:39:44.770Z,99709.41
2022-10-23T01:42:50.531Z,99711.75
2022-10-23T01:46:00.803Z,99696.22
2022-10-23T01:49:03.694Z,99697.38
2022-10-23T01:52:10.429Z,99697.19
2022-10-23T01:55:20.108Z,99690.84
2022-10-23T01:58:23.007Z,99680.19
2022-10-23T02:01:29.233Z,99674.63
2022-10-23T02:04:36.264Z,99660.91
2022-10-23T02:07:38.153Z,99659.84
2022-10-23T02:10:51.639Z,99661.56
2022-10-23T02:14:18.859Z,99654.19
2022-10-23T02:17:40.562Z,99650.44
2022-10-23T02:20:47.930Z,99655.38
2022-10-23T02:24:12.118Z,99654.91
2022-10-23T02:27:24.899Z,99656.66
2022-10-23T02:30:34.381Z,99647.81
2022-10-23T02:33:46.217Z,99649.63
2022-10-23T02:36:47.716Z,99653.63
2022-10-23T02:39:49.460Z,99653.56
2022-10-23T02:43:01.413Z,99651.66
2022-10-23T02:46:40.025Z,99648.63
2022-10-23T02:49:56.159Z,99648.63
2022-10-23T02:53:02.187Z,99634.25
2022-10-23T02:56:17.767Z,99632.06
2022-10-23T02:59:24.734Z,99618.22
2022-10-23T03:02:35.770Z,99613.69
2022-10-23T03:05:40.611Z,99614.41
2022-10-23T03:08:52.563Z,99609.84
2022-10-23T03:11:54.041Z,99611.03
2022-10-23T03:14:55.457Z,99606.56
2022-10-23T03:17:57.013Z,99607.28
2022-10-23T03:20:58.414Z,99606.47
2022-10-23T03:23:59.965Z,99600.88
2022-10-23T03:27:08.033Z,99608.28
2022-10-23T03:30:10.147Z,99612.94
2022-10-23T03:33:13.906Z,99617.34
2022-10-23T03:36:15.356Z,99609.69
2022-10-23T03:39:18.897Z,99613.16
2022-10-23T03:42:20.367Z,99610.09
2022-10-23T03:45:21.809Z,99616.34
2022-10-23T03:48:24.761Z,99611.53
2022-10-23T03:51:27.443Z,99617.53
2022-10-23T03:54:30.004Z,99609.91
2022-10-23T03:57:32.212Z,99620.25
2022-10-23T04:00:33.580Z,99609.28
2022-10-23T04:03:35.854Z,99612.91
2022-10-23T04:06:37.429Z,99614.72
2022-10-23T04:09:39.263Z,99611.69
2022-10-23T04:12:41.003Z,99612.06
2022-10-23T04:15:49.314Z,99596.97
2022-10-23T04:18:51.940Z,99602.66
2022-10-23T04:21:53.340Z,99605.94
2022-10-23T04:24:54.786Z,99606.78
2022-10-23T04:27:56.215Z,99603.13
2022-10-23T04:30:57.750Z,99593.16
2022-10-23T04:33:59.321Z,99587.31
2022-10-23T04:37:05.157Z,99590.91
2022-10-23T04:40:07.400Z,99594.06
2022-10-23T04:43:10.808Z,99585.16
2022-10-23T04:46:14.526Z,99575.63
2022-10-23T04:49:16.005Z,99579.75
2022-10-23T04:52:23.799Z,99584.72
2022-10-23T04:55:38.164Z,99579.72
2022-10-23T04:58:49.487Z,99574.44
2022-10-23T05:01:51.136Z,99574.81
2022-10-23T05:04:53.240Z,99568.56
2022-10-23T05:08:20.584Z,99564.63
2022-10-23T05:11:40.455Z,99571.19
2022-10-23T05:14:43.629Z,99562.72
2022-10-23T05:17:47.778Z,99559.19
2022-10-23T05:20:54.192Z,99563.69
2022-10-23T05:23:55.697Z,99562.00
2022-10-23T05:26:57.799Z,99563.53
2022-10-23T05:29:59.201Z,99567.09
2022-10-23T05:33:04.241Z,99562.59
2022-10-23T05:36:14.017Z,99557.78
2022-10-23T05:39:16.569Z,99559.66
2022-10-23T05:42:20.005Z,99565.19
2022-10-23T05:45:21.759Z,99560.94
2022-10-23T05:48:54.352Z,99557.38
2022-10-23T05:52:12.753Z,99571.47
2022-10-23T05:55:39.756Z,99564.06
2022-10-23T05:58:52.209Z,99565.56
2022-10-23T06:02:25.920Z,99563.78
2022-10-23T06:05:33.657Z,99556.84
2022-10-23T06:08:50.768Z,99566.41
2022-10-23T06:11:55.319Z,99568.19
2022-10-23T06:14:57.853Z,99562.84
2022-10-23T06:18:09.477Z,99553.19
2022-10-23T06:21:20.805Z,99547.81
2022-10-23T06:24:24.981Z,99551.44
2022-10-23T06:27:35.287Z,99559.00
2022-10-23T06:30:39.578Z,99558.69
2022-10-23T06:33:41.068Z,99562.50
2022-10-23T06:36:44.928Z,99557.53
2022-10-23T06:40:01.593Z,99562.44
2022-10-23T06:43:15.965Z,99560.56
2022-10-23T06:46:35.547Z,99558.75
2022-10-23T06:49:55.779Z,99538.28
2022-10-23T06:52:57.401Z,99552.34
2022-10-23T06:56:00.537Z,99549.25
2022-10-23T06:59:02.306Z,99546.19
2022-10-23T07:02:04.835Z,99549.44
2022-10-23T07:05:09.886Z,99559.88
2022-10-23T07:08:14.850Z,99562.00
2022-10-23T07:11:18.953Z,99557.44
2022-10-23T07:14:23.603Z,99544.63
2022-10-23T07:17:25.165Z,99540.19
2022-10-23T07:20:27.634Z,99540.81
2022-10-23T07:23:29.030Z,99534.25
2022-10-23T07:26:32.563Z,99524.81
2022-10-23T07:29:34.357Z,99535.50
2022-10-23T07:32:37.392Z,99534.63
2022-10-23T07:35:57.537Z,99538.72
2022-10-23T07:39:03.348Z,99553.09
2022-10-23T07:42:15.469Z,99559.06
2022-10-23T07:45:17.272Z,99570.63
2022-10-23T07:48:21.748Z,99570.88
2022-10-23T07:51:33.152Z,99577.63
2022-10-23T07:54:35.447Z,99568.94
2022-10-23T07:57:55.591Z,99574.88
2022-10-23T08:01:29.211Z,99576.16
2022-10-23T08:04:30.833Z,99569.28
2022-10-23T08:07:36.242Z,99558.25
2022-10-23T08:10:37.835Z,99558.06
2022-10-23T08:13:44.246Z,99547.75
2022-10-23T08:16:46.574Z,99551.88
2022-10-23T08:19:50.804Z,99542.91
2022-10-23T08:22:53.914Z,99543.22
2022-10-23T08:26:05.248Z,99533.59
2022-10-23T08:29:06.744Z,99528.94
2022-10-23T08:32:08.139Z,99525.72
2022-10-23T08:35:30.553Z,99517.66
2022-10-23T08:38:33.707Z,99528.06
2022-10-23T08:41:39.088Z,99503.47
2022-10-23T08:45:11.884Z,99504.25
2022-10-23T08:48:33.067Z,99497.38
2022-10-23T08:52:40.265Z,99498.78
2022-10-23T08:55:53.127Z,99493.31
2022-10-23T08:59:05.478Z,99483.31
2022-10-23T09:02:22.292Z,99477.38
2022-10-23T09:05:57.969Z,99480.66
2022-10-23T09:09:21.678Z,99497.91
2022-10-23T09:12:25.413Z,99487.75
2022-10-23T09:15:45.684Z,99491.84
2022-10-23T09:18:49.645Z,99492.88
2022-10-23T09:21:51.158Z,99494.09
2022-10-23T09:24:53.910Z,99499.78
2022-10-23T09:28:01.504Z,99507.56
2022-10-23T09:31:08.620Z,99500.41
2022-10-23T09:34:20.242Z,99496.34
2022-10-23T09:37:27.899Z,99484.91
2022-10-23T09:40:42.960Z,99484.69
2022-10-23T09:43:44.399Z,99471.97
2022-10-23T09:49:54.973Z,99447.13
2022-10-23T09:52:56.979Z,99440.88
2022-10-23T09:56:24.829Z,99438.28
2022-10-23T09:59:30.018Z,99432.06
2022-10-23T10:02:35.411Z,99443.81
2022-10-23T10:06:01.635Z,99439.75
2022-10-23T10:09:10.499Z,99456.66
2022-10-23T10:12:49.343Z,99453.97
2022-10-23T10:15:55.372Z,99458.56
2022-10-23T10:19:02.923Z,99450.44
2022-10-23T10:22:34.748Z,99456.13
2022-10-23T10:25:57.299Z,99462.84
2022-10-23T10:29:16.814Z,99458.47
2022-10-23T10:32:35.642Z,99467.19
2022-10-23T10:35:42.814Z,99467.38
2022-10-23T10:38:52.872Z,99458.19
2022-10-23T10:42:17.140Z,99447.81
2022-10-23T10:45:25.341Z,99439.25
2022-10-23T10:48:51.702Z,99432.66
2022-10-23T10:52:19.889Z,99437.44
2022-10-23T10:55:33.809Z,99434.44
2022-10-23T10:58:50.679Z,99424.81
2022-10-23T11:02:05.665Z,99424.72
2022-10-23T11:05:24.875Z,99413.97
2022-10-23T11:08:49.864Z,99407.50
2022-10-23T11:11:59.624Z,99403.97
2022-10-23T11:15:01.341Z,99397.34
2022-10-23T11:18:05.922Z,99392.88
2022-10-23T11:21:27.208Z,99396.59
2022-10-23T11:25:02.916Z,99390.47
2022-10-23T11:28:19.411Z,99389.53
2022-10-23T11:31:42.411Z,99371.53
2022-10-23T11:35:08.798Z,99384.44
2022-10-23T11:38:13.347Z,99374.66
2022-10-23T11:41:33.807Z,99383.88
2022-10-23T11:44:49.219Z,99386.28
2022-10-23T11:48:03.058Z,99376.41
2022-10-23T11:51:05.342Z,99378.81
2022-10-23T11:54:09.928Z,99379.41
2022-10-23T11:57:17.189Z,99363.88
2022-10-23T12:00:22.132Z,99363.06
2022-10-23T12:03:36.353Z,99362.22
2022-10-23T12:06:49.699Z,99361.00
2022-10-23T12:10:05.962Z,99345.47
2022-10-23T12:13:44.795Z,99348.72
2022-10-23T12:16:46.294Z,99345.78
2022-10-23T12:19:50.577Z,99335.59
2022-10-23T12:23:23.365Z,99324.28
2022-10-23T12:26:54.466Z,99317.41
2022-10-23T12:30:17.100Z,99301.78
2022-10-23T12:33:27.495Z,99294.09
2022-10-23T12:36:47.945Z,99284.75
2022-10-23T12:39:56.555Z,99277.13
2022-10-23T12:43:00.699Z,99260.31
2022-10-23T12:46:25.931Z,99258.53
2022-10-23T12:49:32.047Z,99260.59
2022-10-23T12:52:39.537Z,99254.66
2022-10-23T12:55:56.306Z,99252.22
2022-10-23T12:59:01.917Z,99251.53
2022-10-23T13:02:23.062Z,99243.19
2022-10-23T13:05:25.504Z,99248.00
2022-10-23T13:08:33.056Z,99241.72
2022-10-23T13:11:52.364Z,99239.59
2022-10-23T13:15:16.481Z,99238.47
2022-10-23T13:18:18.282Z,99229.91
2022-10-23T13:21:29.042Z,99229.31
2022-10-23T13:24:31.509Z,99229.19
2022-10-23T13:27:34.260Z,99224.00
2022-10-23T13:30:39.732Z,99220.41
2022-10-23T13:33:46.575Z,99208.81
2022-10-23T13:36:56.247Z,99206.28
2022-10-23T13:40:01.894Z,99190.69
2022-10-23T13:43:16.258Z,99202.81
2022-10-23T13:46:22.811Z,99197.28
2022-10-23T13:49:24.327Z,99199.34
2022-10-23T13:52:25.859Z,99207.06
2022-10-23T13:55:28.223Z,99205.47
2022-10-23T13:58:29.722Z,99204.16
2022-10-23T14:01:35.967Z,99202.00
2022-10-23T14:04:37.765Z,99208.72
2022-10-23T14:07:40.146Z,99208.72
2022-10-23T14:10:41.714Z,99219.75
2022-10-23T14:13:43.687Z,99202.28
2022-10-23T14:16:45.162Z,99231.56
2022-10-23T14:19:46.847Z,99211.19
2022-10-23T14:22:48.467Z,99247.66
2022-10-23T14:25:50.017Z,99241.88
2022-10-23T14:28:57.536Z,99259.97
2022-10-23T14:32:01.050Z,99235.91
2022-10-23T14:35:03.947Z,99251.63
2022-10-23T14:38:05.502Z,99248.53
2022-10-23T14:41:11.997Z,99220.81
2022-10-23T14:44:13.632Z,99210.19
2022-10-23T14:47:15.684Z,99199.78
2022-10-23T14:50:17.094Z,99193.78
2022-10-23T14:53:19.030Z,99197.19
2022-10-23T14:56:20.577Z,99211.56
2022-10-23T14:59:22.050Z,99198.38
2022-10-23T15:02:23.685Z,99205.00
2022-10-23T15:05:25.289Z,99204.41
2022-10-23T15:08:26.886Z,99196.28
2022-10-23T15:11:28.979Z,99183.59
2022-10-23T15:14:30.643Z,99170.97
2022-10-23T15:17:33.987Z,99172.75
2022-10-23T15:20:35.443Z,99181.66
2022-10-23T15:23:39.815Z,99172.00
2022-10-23T15:26:43.339Z,99169.00
2022-10-23T15:29:45.202Z,99164.56
2022-10-23T15:32:46.809Z,99141.44
2022-10-23T15:35:48.890Z,99135.09
2022-10-23T15:38:50.494Z,99129.25
2022-10-23T15:41:56.602Z,99118.72
2022-10-23T15:44:58.072Z,99108.56
2022-10-23T15:47:59.532Z,99103.31
2022-10-23T15:51:01.010Z,99129.31
2022-10-23T15:54:04.076Z,99128.72
2022-10-23T15:57:05.655Z,99112.09
2022-10-23T16:00:09.811Z,99118.81
2022-10-23T16:03:11.229Z,99137.22
2022-10-23T16:06:15.632Z,99142.09
2022-10-23T16:09:17.255Z,99151.28
2022-10-23T16:12:18.717Z,99162.50
2022-10-23T16:15:20.325Z,99159.00
2022-10-23T16:18:23.063Z,99165.25
2022-10-23T16:21:27.448Z,99146.59
2022-10-23T16:24:30.300Z,99149.75
2022-10-23T16:27:31.844Z,99165.72
2022-10-23T16:30:33.377Z,99170.97
2022-10-23T16:33:34.931Z,99168.97
2022-10-23T16:36:39.039Z,99156.69
2022-10-23T16:39:43.696Z,99147.88
2022-10-23T16:43:08.373Z,99158.69
2022-10-23T16:46:21.687Z,99171.59
2022-10-23T16:49:23.450Z,99160.75
2022-10-23T16:52:26.957Z,99168.31
2022-10-23T16:55:28.821Z,99169.50
2022-10-23T16:58:30.417Z,99166.22
2022-10-23T17:01:33.115Z,99156.31
2022-10-23T17:04:36.153Z,99153.16
2022-10-23T17:07:37.818Z,99191.50
2022-10-23T17:10:39.366Z,99226.25
2022-10-23T17:13:45.823Z,99227.53
2022-10-23T17:16:50.308Z,99233.41
2022-10-23T17:19:51.878Z,99240.84
2022-10-23T17:22:53.443Z,99271.03
2022-10-23T17:25:55.931Z,99275.31
2022-10-23T17:28:59.057Z,99293.72
2022-10-23T17:32:00.873Z,99315.63
2022-10-23T17:35:05.417Z,99312.25
2022-10-23T17:38:06.921Z,99315.00
2022-10-23T17:41:09.302Z,99342.22
2022-10-23T17:44:11.662Z,99352.56
2022-10-23T17:47:13.449Z,99362.00
2022-10-23T17:50:15.134Z,99357.69
2022-10-23T17:53:16.666Z,99354.16
2022-10-23T17:56:26.887Z,99337.63
2022-10-23T17:59:28.446Z,99334.84
2022-10-23T18:02:30.079Z,99314.22
2022-10-23T18:05:33.065Z,99313.75
2022-10-23T18:08:36.716Z,99312.84
2022-10-23T18:11:45.307Z,99306.50
2022-10-23T18:14:49.296Z,99312.88
2022-10-23T18:17:50.787Z,99325.31
2022-10-23T18:20:52.470Z,99325.94
2022-10-23T18:23:54.660Z,99343.44
2022-10-23T18:26:56.297Z,99333.53
2022-10-23T18:29:58.303Z,99322.75
2022-10-23T18:32:59.957Z,99328.19
2022-10-23T18:36:01.573Z,99349.38
2022-10-23T18:39:05.045Z,99321.56
2022-10-23T18:42:06.603Z,99343.59
2022-10-23T18:45:11.904Z,99325.91
2022-10-23T18:48:13.547Z,99318.78
2022-10-23T18:51:23.419Z,99321.00
2022-10-23T18:54:25.017Z,99318.69
2022-10-23T18:57:26.563Z,99313.47
2022-10-23T19:00:28.228Z,99310.78
2022-10-23T19:03:29.708Z,99310.22
2022-10-23T19:06:32.079Z,99295.13
2022-10-23T19:09:33.640Z,99292.97
2022-10-23T19:12:35.234Z,99276.88
2022-10-23T19:15:37.398Z,99277.88
2022-10-23T19:18:43.029Z,99272.97
2022-10-23T19:21:45.402Z,99265.59
2022-10-23T19:24:56.246Z,99256.44
2022-10-23T19:27:58.982Z,99258.28
2022-10-23T19:31:00.960Z,99271.34
2022-10-23T19:34:02.685Z,99254.47
2022-10-23T19:37:04.387Z,99262.81
2022-10-23T19:40:07.869Z,99252.72
2022-10-23T19:43:09.377Z,99247.78
2022-10-23T19:46:12.384Z,99262.41
2022-10-23T19:49:14.204Z,99255.75
2022-10-23T19:52:15.665Z,99259.56
2022-10-23T19:55:17.205Z,99263.59
2022-10-23T19:58:18.812Z,99253.97
2022-10-23T20:01:24.619Z,99249.03
2022-10-23T20:04:26.952Z,99250.53
2022-10-23T20:07:28.425Z,99250.72
2022-10-23T20:10:29.823Z,99256.31
2022-10-23T20:13:31.302Z,99258.25
2022-10-23T20:16:36.025Z,99268.25
2022-10-23T20:19:37.497Z,99271.22
2022-10-23T20:22:40.657Z,99270.03
2022-10-23T20:25:44.511Z,99279.53
2022-10-23T20:28:48.293Z,99281.59
2022-10-23T20:31:49.956Z,99291.13
2022-10-23T20:34:52.612Z,99282.81
2022-10-23T20:37:53.992Z,99280.28
2022-10-23T20:40:57.611Z,99274.25
2022-10-23T20:44:00.232Z,99283.16
2022-10-23T20:47:01.832Z,99272.94
2022-10-23T20:50:03.521Z,99300.13
2022-10-23T20:53:05.797Z,99300.22
2022-10-23T20:56:15.847Z,99297.63
2022-10-23T20:59:18.619Z,99305.03
2022-10-23T21:02:20.132Z,99313.94
2022-10-23T21:05:21.821Z,99317.94
2022-10-23T21:08:23.247Z,99326.88
2022-10-23T21:11:25.534Z,99332.66
2022-10-23T21:14:27.270Z,99327.72
2022-10-23T21:17:35.474Z,99326.59
2022-10-23T21:20:37.340Z,99327.44
2022-10-23T21:23:38.949Z,99335.63
2022-10-23T21:26:40.426Z,99329.66
2022-10-23T21:29:42.010Z,99311.81
2022-10-23T21:32:43.476Z,99317.38
2022-10-23T21:35:57.835Z,99309.06
2022-10-23T21:39:06.193Z,99306.63
2022-10-23T21:42:07.883Z,99301.88
2022-10-23T21:45:09.616Z,99304.09
2022-10-23T21:48:11.142Z,99309.06
2022-10-23T21:51:24.925Z,99302.59
2022-10-23T21:54:26.513Z,99297.81
2022-10-23T21:57:33.270Z,99297.50
2022-10-23T22:00:34.753Z,99303.72
2022-10-23T22:03:36.254Z,99302.19
2022-10-23T22:06:38.753Z,99296.09
2022-10-23T22:09:40.557Z,99294.81
2022-10-23T22:12:41.997Z,99285.19
2022-10-23T22:18:50.005Z,99284.63
2022-10-23T22:21:51.692Z,99278.25
2022-10-23T22:24:53.123Z,99285.09
2022-10-23T22:27:54.522Z,99286.94
2022-10-23T22:30:55.937Z,99289.47
2022-10-23T22:33:58.796Z,99296.72
2022-10-23T22:37:00.231Z,99290.59
2022-10-23T22:40:02.337Z,99301.28
2022-10-23T22:43:03.885Z,99299.63
2022-10-23T22:46:14.197Z,99302.03
2022-10-23T22:49:15.729Z,99303.66
2022-10-23T22:52:17.179Z,99307.94
2022-10-23T22:55:18.576Z,99303.66
2022-10-23T22:58:20.615Z,99309.28
2022-10-23T23:01:26.310Z,99315.78
2022-10-23T23:04:43.107Z,99311.06
2022-10-23T23:07:44.767Z,99315.59
2022-10-23T23:10:53.816Z,99312.81
2022-10-23T23:13:55.402Z,99304.16
2022-10-23T23:16:56.797Z,99315.38
2022-10-23T23:19:58.218Z,99318.88
2022-10-23T23:22:59.621Z,99309.66
2022-10-23T23:26:05.531Z,99308.09
2022-10-23T23:29:06.981Z,99314.41
2022-10-23T23:32:08.480Z,99313.16
2022-10-23T23:35:10.020Z,99319.75
2022-10-23T23:38:12.867Z,99320.31
2022-10-23T23:41:16.137Z,99323.59
2022-10-23T23:44:17.503Z,99323.56
2022-10-23T23:47:18.977Z,99324.81
2022-10-23T23:50:20.517Z,99319.28
2022-10-23T23:53:21.999Z,99322.22
2022-10-23T23:56:23.375Z,99329.22
2022-10-23T23:59:24.820Z,99330.53
